sensor_id;sensor_type;location;lat;lon;timestamp;P1;durP1;ratioP1;P2;durP2;ratioP2
22480;SDS011;11407;56.964;-2.212;2023-07-08T00:00:51;6.20;;;3.90;;
22480;SDS011;11407;56.964;-2.212;2023-07-08T00:03:17;8.83;;;3.93;;
22480;SDS011;11407;56.964;-2.212;2023-07-08T00:05:42;6.57;;;3.40;;
22480;SDS011;11407;56.964;-2.212;2023-07-08T00:08:08;4.93;;;3.67;;
22480;SDS011;11407;56.964;-2.212;2023-07-08T00:10:36;6.90;;;3.80;;
22480;SDS011;11407;56.964;-2.212;2023-07-08T00:13:01;5.70;;;3.50;;
22480;SDS011;11407;56.964;-2.212;2023-07-08T00:15:27;6.70;;;2.97;;
22480;SDS011;11407;56.964;-2.212;2023-07-08T00:17:53;5.83;;;3.70;;
22480;SDS011;11407;56.964;-2.212;2023-07-08T00:22:46;6.17;;;3.90;;
22480;SDS011;11407;56.964;-2.212;2023-07-08T00:25:15;6.50;;;3.33;;
22480;SDS011;11407;56.964;-2.212;2023-07-08T00:27:40;5.60;;;3.50;;
22480;SDS011;11407;56.964;-2.212;2023-07-08T00:30:11;4.83;;;3.47;;
22480;SDS011;11407;56.964;-2.212;2023-07-08T00:32:40;7.90;;;4.10;;
22480;SDS011;11407;56.964;-2.212;2023-07-08T00:35:06;5.47;;;3.93;;
22480;SDS011;11407;56.964;-2.212;2023-07-08T00:37:32;6.17;;;3.77;;
22480;SDS011;11407;56.964;-2.212;2023-07-08T00:39:57;4.37;;;3.33;;
22480;SDS011;11407;56.964;-2.212;2023-07-08T00:42:22;7.77;;;3.87;;
22480;SDS011;11407;56.964;-2.212;2023-07-08T00:44:49;4.37;;;3.20;;
22480;SDS011;11407;56.964;-2.212;2023-07-08T00:47:14;6.67;;;4.00;;
22480;SDS011;11407;56.964;-2.212;2023-07-08T00:49:42;5.27;;;3.23;;
22480;SDS011;11407;56.964;-2.212;2023-07-08T00:52:25;5.23;;;3.10;;
22480;SDS011;11407;56.964;-2.212;2023-07-08T00:54:54;7.27;;;3.53;;
22480;SDS011;11407;56.964;-2.212;2023-07-08T00:57:20;5.87;;;3.47;;
22480;SDS011;11407;56.964;-2.212;2023-07-08T00:59:50;4.13;;;3.10;;
22480;SDS011;11407;56.964;-2.212;2023-07-08T01:02:17;7.30;;;3.93;;
22480;SDS011;11407;56.964;-2.212;2023-07-08T01:04:47;6.50;;;4.17;;
22480;SDS011;11407;56.964;-2.212;2023-07-08T01:07:14;5.67;;;3.73;;
22480;SDS011;11407;56.964;-2.212;2023-07-08T01:09:46;4.87;;;3.80;;
22480;SDS011;11407;56.964;-2.212;2023-07-08T01:12:15;4.50;;;3.60;;
22480;SDS011;11407;56.964;-2.212;2023-07-08T01:14:41;7.13;;;3.80;;
22480;SDS011;11407;56.964;-2.212;2023-07-08T01:17:08;5.90;;;3.77;;
22480;SDS011;11407;56.964;-2.212;2023-07-08T01:19:38;4.63;;;3.57;;
22480;SDS011;11407;56.964;-2.212;2023-07-08T01:22:04;6.37;;;3.80;;
22480;SDS011;11407;56.964;-2.212;2023-07-08T01:24:30;6.50;;;3.73;;
22480;SDS011;11407;56.964;-2.212;2023-07-08T01:26:56;7.80;;;3.67;;
22480;SDS011;11407;56.964;-2.212;2023-07-08T01:29:22;6.83;;;4.50;;
22480;SDS011;11407;56.964;-2.212;2023-07-08T01:31:47;6.03;;;3.70;;
22480;SDS011;11407;56.964;-2.212;2023-07-08T01:34:13;8.33;;;4.07;;
22480;SDS011;11407;56.964;-2.212;2023-07-08T01:36:40;7.43;;;3.80;;
22480;SDS011;11407;56.964;-2.212;2023-07-08T01:39:10;7.50;;;4.20;;
22480;SDS011;11407;56.964;-2.212;2023-07-08T01:41:35;8.77;;;4.03;;
22480;SDS011;11407;56.964;-2.212;2023-07-08T01:44:00;5.47;;;3.70;;
22480;SDS011;11407;56.964;-2.212;2023-07-08T01:46:26;7.77;;;4.47;;
22480;SDS011;11407;56.964;-2.212;2023-07-08T01:48:53;8.87;;;7.00;;
22480;SDS011;11407;56.964;-2.212;2023-07-08T01:51:19;10.47;;;6.47;;
22480;SDS011;11407;56.964;-2.212;2023-07-08T01:53:45;7.00;;;4.83;;
22480;SDS011;11407;56.964;-2.212;2023-07-08T01:56:10;5.80;;;4.10;;
22480;SDS011;11407;56.964;-2.212;2023-07-08T01:58:36;6.90;;;3.53;;
22480;SDS011;11407;56.964;-2.212;2023-07-08T02:01:01;5.47;;;3.97;;
22480;SDS011;11407;56.964;-2.212;2023-07-08T02:03:27;5.30;;;3.40;;
22480;SDS011;11407;56.964;-2.212;2023-07-08T02:05:52;6.97;;;4.00;;
22480;SDS011;11407;56.964;-2.212;2023-07-08T02:08:18;9.20;;;4.20;;
22480;SDS011;11407;56.964;-2.212;2023-07-08T02:10:44;7.07;;;3.80;;
22480;SDS011;11407;56.964;-2.212;2023-07-08T02:13:10;5.47;;;3.57;;
22480;SDS011;11407;56.964;-2.212;2023-07-08T02:15:35;7.27;;;3.60;;
22480;SDS011;11407;56.964;-2.212;2023-07-08T02:18:00;6.77;;;3.93;;
22480;SDS011;11407;56.964;-2.212;2023-07-08T02:20:26;6.33;;;3.80;;
22480;SDS011;11407;56.964;-2.212;2023-07-08T02:22:51;6.60;;;3.80;;
22480;SDS011;11407;56.964;-2.212;2023-07-08T02:25:16;7.23;;;3.77;;
22480;SDS011;11407;56.964;-2.212;2023-07-08T02:27:42;8.00;;;3.70;;
22480;SDS011;11407;56.964;-2.212;2023-07-08T02:30:08;5.93;;;3.83;;
22480;SDS011;11407;56.964;-2.212;2023-07-08T02:32:34;5.10;;;3.27;;
22480;SDS011;11407;56.964;-2.212;2023-07-08T02:35:04;6.00;;;3.27;;
22480;SDS011;11407;56.964;-2.212;2023-07-08T02:37:29;4.60;;;3.50;;
22480;SDS011;11407;56.964;-2.212;2023-07-08T02:39:55;5.97;;;3.70;;
22480;SDS011;11407;56.964;-2.212;2023-07-08T02:42:20;7.90;;;3.63;;
22480;SDS011;11407;56.964;-2.212;2023-07-08T02:44:45;5.53;;;3.60;;
22480;SDS011;11407;56.964;-2.212;2023-07-08T02:47:11;5.00;;;3.40;;
22480;SDS011;11407;56.964;-2.212;2023-07-08T02:49:36;6.17;;;4.00;;
22480;SDS011;11407;56.964;-2.212;2023-07-08T02:52:01;6.60;;;4.17;;
22480;SDS011;11407;56.964;-2.212;2023-07-08T02:54:26;8.57;;;3.97;;
22480;SDS011;11407;56.964;-2.212;2023-07-08T02:56:52;8.33;;;4.40;;
22480;SDS011;11407;56.964;-2.212;2023-07-08T02:59:17;5.40;;;4.27;;
22480;SDS011;11407;56.964;-2.212;2023-07-08T03:01:42;7.07;;;3.63;;
22480;SDS011;11407;56.964;-2.212;2023-07-08T03:04:08;7.23;;;3.60;;
22480;SDS011;11407;56.964;-2.212;2023-07-08T03:06:38;5.23;;;3.77;;
22480;SDS011;11407;56.964;-2.212;2023-07-08T03:09:03;10.13;;;3.40;;
22480;SDS011;11407;56.964;-2.212;2023-07-08T03:11:29;8.37;;;3.90;;
22480;SDS011;11407;56.964;-2.212;2023-07-08T03:13:54;6.47;;;4.50;;
22480;SDS011;11407;56.964;-2.212;2023-07-08T03:16:20;7.30;;;3.80;;
22480;SDS011;11407;56.964;-2.212;2023-07-08T03:18:45;7.87;;;4.30;;
22480;SDS011;11407;56.964;-2.212;2023-07-08T03:21:15;8.43;;;4.00;;
22480;SDS011;11407;56.964;-2.212;2023-07-08T03:23:41;5.07;;;3.60;;
22480;SDS011;11407;56.964;-2.212;2023-07-08T03:26:06;5.73;;;4.03;;
22480;SDS011;11407;56.964;-2.212;2023-07-08T03:28:31;7.97;;;4.00;;
22480;SDS011;11407;56.964;-2.212;2023-07-08T03:30:56;9.50;;;4.60;;
22480;SDS011;11407;56.964;-2.212;2023-07-08T03:33:22;5.90;;;3.87;;
22480;SDS011;11407;56.964;-2.212;2023-07-08T03:35:48;6.33;;;4.30;;
22480;SDS011;11407;56.964;-2.212;2023-07-08T03:38:14;6.97;;;4.23;;
22480;SDS011;11407;56.964;-2.212;2023-07-08T03:40:39;9.00;;;4.47;;
22480;SDS011;11407;56.964;-2.212;2023-07-08T03:43:05;8.63;;;4.10;;
22480;SDS011;11407;56.964;-2.212;2023-07-08T03:45:30;5.23;;;3.70;;
22480;SDS011;11407;56.964;-2.212;2023-07-08T03:47:55;8.50;;;4.47;;
22480;SDS011;11407;56.964;-2.212;2023-07-08T03:50:21;6.90;;;5.00;;
22480;SDS011;11407;56.964;-2.212;2023-07-08T03:52:47;9.03;;;4.40;;
22480;SDS011;11407;56.964;-2.212;2023-07-08T03:55:12;8.20;;;4.27;;
22480;SDS011;11407;56.964;-2.212;2023-07-08T03:57:38;7.47;;;3.93;;
22480;SDS011;11407;56.964;-2.212;2023-07-08T04:00:03;8.00;;;4.03;;
22480;SDS011;11407;56.964;-2.212;2023-07-08T04:02:29;6.07;;;3.97;;
22480;SDS011;11407;56.964;-2.212;2023-07-08T04:04:54;7.83;;;4.00;;
22480;SDS011;11407;56.964;-2.212;2023-07-08T04:07:19;6.87;;;3.60;;
22480;SDS011;11407;56.964;-2.212;2023-07-08T04:09:44;6.07;;;3.80;;
22480;SDS011;11407;56.964;-2.212;2023-07-08T04:12:14;7.93;;;3.83;;
22480;SDS011;11407;56.964;-2.212;2023-07-08T04:14:40;7.70;;;4.13;;
22480;SDS011;11407;56.964;-2.212;2023-07-08T04:17:07;6.77;;;4.20;;
22480;SDS011;11407;56.964;-2.212;2023-07-08T04:19:33;6.87;;;4.17;;
22480;SDS011;11407;56.964;-2.212;2023-07-08T04:21:58;6.67;;;3.77;;
22480;SDS011;11407;56.964;-2.212;2023-07-08T04:24:23;5.40;;;3.53;;
22480;SDS011;11407;56.964;-2.212;2023-07-08T04:26:48;7.17;;;3.70;;
22480;SDS011;11407;56.964;-2.212;2023-07-08T04:29:14;5.13;;;3.70;;
22480;SDS011;11407;56.964;-2.212;2023-07-08T04:31:40;5.37;;;3.53;;
22480;SDS011;11407;56.964;-2.212;2023-07-08T04:34:07;5.20;;;4.03;;
22480;SDS011;11407;56.964;-2.212;2023-07-08T04:36:32;7.90;;;3.90;;
22480;SDS011;11407;56.964;-2.212;2023-07-08T04:38:59;6.73;;;4.20;;
22480;SDS011;11407;56.964;-2.212;2023-07-08T04:41:25;5.83;;;4.27;;
22480;SDS011;11407;56.964;-2.212;2023-07-08T04:43:53;8.60;;;3.77;;
22480;SDS011;11407;56.964;-2.212;2023-07-08T04:47:03;5.87;;;3.50;;
22480;SDS011;11407;56.964;-2.212;2023-07-08T04:49:05;6.23;;;3.70;;
22480;SDS011;11407;56.964;-2.212;2023-07-08T04:51:31;8.10;;;4.00;;
22480;SDS011;11407;56.964;-2.212;2023-07-08T04:53:56;5.80;;;3.80;;
22480;SDS011;11407;56.964;-2.212;2023-07-08T04:56:21;7.00;;;4.23;;
22480;SDS011;11407;56.964;-2.212;2023-07-08T04:58:48;8.73;;;4.20;;
22480;SDS011;11407;56.964;-2.212;2023-07-08T05:01:13;8.30;;;4.60;;
22480;SDS011;11407;56.964;-2.212;2023-07-08T05:03:39;10.17;;;4.70;;
22480;SDS011;11407;56.964;-2.212;2023-07-08T05:06:04;8.17;;;5.07;;
22480;SDS011;11407;56.964;-2.212;2023-07-08T05:08:29;12.33;;;5.30;;
22480;SDS011;11407;56.964;-2.212;2023-07-08T05:10:55;10.10;;;4.90;;
22480;SDS011;11407;56.964;-2.212;2023-07-08T05:13:20;9.57;;;5.00;;
22480;SDS011;11407;56.964;-2.212;2023-07-08T05:15:47;11.77;;;4.80;;
22480;SDS011;11407;56.964;-2.212;2023-07-08T05:18:13;12.27;;;5.00;;
22480;SDS011;11407;56.964;-2.212;2023-07-08T05:20:38;9.07;;;4.80;;
22480;SDS011;11407;56.964;-2.212;2023-07-08T05:23:03;7.27;;;4.57;;
22480;SDS011;11407;56.964;-2.212;2023-07-08T05:25:30;9.57;;;4.20;;
22480;SDS011;11407;56.964;-2.212;2023-07-08T05:27:56;5.67;;;4.47;;
22480;SDS011;11407;56.964;-2.212;2023-07-08T05:30:21;6.80;;;4.37;;
22480;SDS011;11407;56.964;-2.212;2023-07-08T05:32:47;10.17;;;4.47;;
22480;SDS011;11407;56.964;-2.212;2023-07-08T05:35:12;6.97;;;3.97;;
22480;SDS011;11407;56.964;-2.212;2023-07-08T05:37:37;10.80;;;4.90;;
22480;SDS011;11407;56.964;-2.212;2023-07-08T05:40:05;9.07;;;4.47;;
22480;SDS011;11407;56.964;-2.212;2023-07-08T05:42:31;10.20;;;4.77;;
22480;SDS011;11407;56.964;-2.212;2023-07-08T05:44:56;10.10;;;4.80;;
22480;SDS011;11407;56.964;-2.212;2023-07-08T05:47:22;10.13;;;4.43;;
22480;SDS011;11407;56.964;-2.212;2023-07-08T05:49:47;9.50;;;4.60;;
22480;SDS011;11407;56.964;-2.212;2023-07-08T05:52:13;13.47;;;4.80;;
22480;SDS011;11407;56.964;-2.212;2023-07-08T05:54:38;12.03;;;5.47;;
22480;SDS011;11407;56.964;-2.212;2023-07-08T05:57:04;12.80;;;5.00;;
22480;SDS011;11407;56.964;-2.212;2023-07-08T05:59:30;10.60;;;4.80;;
22480;SDS011;11407;56.964;-2.212;2023-07-08T06:01:55;8.47;;;4.60;;
22480;SDS011;11407;56.964;-2.212;2023-07-08T06:04:20;11.87;;;5.33;;
22480;SDS011;11407;56.964;-2.212;2023-07-08T06:06:47;8.47;;;4.20;;
22480;SDS011;11407;56.964;-2.212;2023-07-08T06:09:12;13.23;;;5.00;;
22480;SDS011;11407;56.964;-2.212;2023-07-08T06:11:37;11.63;;;4.87;;
22480;SDS011;11407;56.964;-2.212;2023-07-08T06:14:02;10.43;;;4.73;;
22480;SDS011;11407;56.964;-2.212;2023-07-08T06:16:28;11.37;;;5.10;;
22480;SDS011;11407;56.964;-2.212;2023-07-08T06:18:55;8.77;;;4.73;;
22480;SDS011;11407;56.964;-2.212;2023-07-08T06:21:21;12.97;;;4.67;;
22480;SDS011;11407;56.964;-2.212;2023-07-08T06:23:46;14.60;;;5.13;;
22480;SDS011;11407;56.964;-2.212;2023-07-08T06:26:11;9.77;;;4.30;;
22480;SDS011;11407;56.964;-2.212;2023-07-08T06:28:36;10.50;;;4.47;;
22480;SDS011;11407;56.964;-2.212;2023-07-08T06:31:01;10.27;;;4.33;;
22480;SDS011;11407;56.964;-2.212;2023-07-08T06:33:27;13.37;;;4.70;;
22480;SDS011;11407;56.964;-2.212;2023-07-08T06:35:52;10.67;;;4.30;;
22480;SDS011;11407;56.964;-2.212;2023-07-08T06:38:17;12.27;;;4.50;;
22480;SDS011;11407;56.964;-2.212;2023-07-08T06:40:42;10.00;;;4.63;;
22480;SDS011;11407;56.964;-2.212;2023-07-08T06:43:08;9.53;;;4.40;;
22480;SDS011;11407;56.964;-2.212;2023-07-08T06:45:33;10.57;;;4.50;;
22480;SDS011;11407;56.964;-2.212;2023-07-08T06:47:58;9.43;;;4.23;;
22480;SDS011;11407;56.964;-2.212;2023-07-08T06:50:23;8.97;;;4.07;;
22480;SDS011;11407;56.964;-2.212;2023-07-08T06:52:49;10.57;;;4.50;;
22480;SDS011;11407;56.964;-2.212;2023-07-08T06:55:14;9.23;;;3.87;;
22480;SDS011;11407;56.964;-2.212;2023-07-08T06:57:39;11.73;;;4.00;;
22480;SDS011;11407;56.964;-2.212;2023-07-08T07:00:08;9.63;;;4.13;;
22480;SDS011;11407;56.964;-2.212;2023-07-08T07:02:34;8.70;;;3.40;;
22480;SDS011;11407;56.964;-2.212;2023-07-08T07:04:59;11.77;;;4.00;;
22480;SDS011;11407;56.964;-2.212;2023-07-08T07:07:25;13.40;;;4.53;;
22480;SDS011;11407;56.964;-2.212;2023-07-08T07:09:50;10.43;;;4.17;;
22480;SDS011;11407;56.964;-2.212;2023-07-08T07:12:15;14.40;;;4.67;;
22480;SDS011;11407;56.964;-2.212;2023-07-08T07:14:40;9.60;;;3.93;;
22480;SDS011;11407;56.964;-2.212;2023-07-08T07:17:07;11.07;;;4.03;;
22480;SDS011;11407;56.964;-2.212;2023-07-08T07:19:32;12.93;;;4.20;;
22480;SDS011;11407;56.964;-2.212;2023-07-08T07:21:57;12.77;;;4.63;;
22480;SDS011;11407;56.964;-2.212;2023-07-08T07:24:22;10.40;;;4.37;;
22480;SDS011;11407;56.964;-2.212;2023-07-08T07:26:48;10.83;;;3.97;;
22480;SDS011;11407;56.964;-2.212;2023-07-08T07:29:16;10.77;;;3.80;;
22480;SDS011;11407;56.964;-2.212;2023-07-08T07:31:41;7.93;;;4.23;;
22480;SDS011;11407;56.964;-2.212;2023-07-08T07:34:07;8.47;;;4.47;;
22480;SDS011;11407;56.964;-2.212;2023-07-08T07:36:32;12.30;;;4.63;;
22480;SDS011;11407;56.964;-2.212;2023-07-08T07:38:58;13.77;;;4.33;;
22480;SDS011;11407;56.964;-2.212;2023-07-08T07:41:23;8.70;;;4.40;;
22480;SDS011;11407;56.964;-2.212;2023-07-08T07:43:48;9.63;;;4.20;;
22480;SDS011;11407;56.964;-2.212;2023-07-08T07:46:13;10.73;;;4.03;;
22480;SDS011;11407;56.964;-2.212;2023-07-08T07:48:39;13.47;;;4.57;;
22480;SDS011;11407;56.964;-2.212;2023-07-08T07:51:05;12.73;;;4.40;;
22480;SDS011;11407;56.964;-2.212;2023-07-08T07:53:30;11.43;;;4.33;;
22480;SDS011;11407;56.964;-2.212;2023-07-08T07:55:59;9.00;;;4.20;;
22480;SDS011;11407;56.964;-2.212;2023-07-08T07:58:25;8.97;;;4.23;;
22480;SDS011;11407;56.964;-2.212;2023-07-08T08:00:50;14.40;;;4.33;;
22480;SDS011;11407;56.964;-2.212;2023-07-08T08:03:15;9.33;;;4.17;;
22480;SDS011;11407;56.964;-2.212;2023-07-08T08:05:41;10.10;;;4.67;;
22480;SDS011;11407;56.964;-2.212;2023-07-08T08:08:07;10.47;;;4.30;;
22480;SDS011;11407;56.964;-2.212;2023-07-08T08:10:32;11.63;;;4.33;;
22480;SDS011;11407;56.964;-2.212;2023-07-08T08:12:58;11.23;;;4.20;;
22480;SDS011;11407;56.964;-2.212;2023-07-08T08:15:24;11.80;;;4.57;;
22480;SDS011;11407;56.964;-2.212;2023-07-08T08:17:49;11.77;;;4.10;;
22480;SDS011;11407;56.964;-2.212;2023-07-08T08:20:17;12.53;;;4.57;;
22480;SDS011;11407;56.964;-2.212;2023-07-08T08:22:42;13.77;;;4.47;;
22480;SDS011;11407;56.964;-2.212;2023-07-08T08:25:08;9.03;;;4.30;;
22480;SDS011;11407;56.964;-2.212;2023-07-08T08:27:33;11.83;;;4.70;;
22480;SDS011;11407;56.964;-2.212;2023-07-08T08:29:58;10.60;;;4.67;;
22480;SDS011;11407;56.964;-2.212;2023-07-08T08:32:23;10.23;;;4.27;;
22480;SDS011;11407;56.964;-2.212;2023-07-08T08:34:49;10.53;;;4.50;;
22480;SDS011;11407;56.964;-2.212;2023-07-08T08:37:14;11.30;;;4.70;;
22480;SDS011;11407;56.964;-2.212;2023-07-08T08:39:39;13.73;;;4.50;;
22480;SDS011;11407;56.964;-2.212;2023-07-08T08:42:07;11.27;;;4.33;;
22480;SDS011;11407;56.964;-2.212;2023-07-08T08:44:36;12.37;;;4.87;;
22480;SDS011;11407;56.964;-2.212;2023-07-08T08:47:19;14.57;;;4.77;;
22480;SDS011;11407;56.964;-2.212;2023-07-08T08:49:50;10.07;;;4.20;;
22480;SDS011;11407;56.964;-2.212;2023-07-08T08:52:19;13.27;;;4.53;;
22480;SDS011;11407;56.964;-2.212;2023-07-08T08:54:44;12.93;;;4.93;;
22480;SDS011;11407;56.964;-2.212;2023-07-08T08:59:53;10.83;;;4.63;;
22480;SDS011;11407;56.964;-2.212;2023-07-08T09:05:04;13.43;;;4.43;;
22480;SDS011;11407;56.964;-2.212;2023-07-08T09:07:34;13.07;;;4.40;;
22480;SDS011;11407;56.964;-2.212;2023-07-08T09:10:03;16.30;;;4.80;;
22480;SDS011;11407;56.964;-2.212;2023-07-08T09:12:29;12.70;;;5.00;;
22480;SDS011;11407;56.964;-2.212;2023-07-08T09:14:56;12.87;;;4.70;;
22480;SDS011;11407;56.964;-2.212;2023-07-08T09:17:22;11.77;;;4.20;;
22480;SDS011;11407;56.964;-2.212;2023-07-08T09:22:21;11.33;;;4.90;;
22480;SDS011;11407;56.964;-2.212;2023-07-08T09:24:51;12.47;;;4.27;;
22480;SDS011;11407;56.964;-2.212;2023-07-08T09:27:16;12.07;;;5.00;;
22480;SDS011;11407;56.964;-2.212;2023-07-08T09:29:42;14.90;;;5.10;;
22480;SDS011;11407;56.964;-2.212;2023-07-08T09:32:15;12.27;;;4.63;;
22480;SDS011;11407;56.964;-2.212;2023-07-08T09:34:43;13.60;;;4.87;;
22480;SDS011;11407;56.964;-2.212;2023-07-08T09:42:51;14.63;;;5.03;;
22480;SDS011;11407;56.964;-2.212;2023-07-08T09:45:19;15.17;;;5.23;;
22480;SDS011;11407;56.964;-2.212;2023-07-08T09:47:44;15.17;;;4.57;;
22480;SDS011;11407;56.964;-2.212;2023-07-08T09:50:20;12.13;;;4.67;;
22480;SDS011;11407;56.964;-2.212;2023-07-08T09:52:50;17.67;;;4.67;;
22480;SDS011;11407;56.964;-2.212;2023-07-08T09:55:15;14.33;;;5.37;;
22480;SDS011;11407;56.964;-2.212;2023-07-08T09:57:41;15.57;;;4.83;;
22480;SDS011;11407;56.964;-2.212;2023-07-08T10:00:09;12.53;;;4.57;;
22480;SDS011;11407;56.964;-2.212;2023-07-08T10:02:54;11.27;;;4.60;;
22480;SDS011;11407;56.964;-2.212;2023-07-08T10:05:39;10.30;;;4.67;;
22480;SDS011;11407;56.964;-2.212;2023-07-08T10:08:13;12.83;;;4.50;;
22480;SDS011;11407;56.964;-2.212;2023-07-08T10:10:39;13.57;;;4.73;;
22480;SDS011;11407;56.964;-2.212;2023-07-08T10:13:06;12.57;;;4.77;;
22480;SDS011;11407;56.964;-2.212;2023-07-08T10:15:37;15.23;;;5.10;;
22480;SDS011;11407;56.964;-2.212;2023-07-08T10:18:03;13.30;;;4.60;;
22480;SDS011;11407;56.964;-2.212;2023-07-08T10:25:58;13.07;;;5.67;;
22480;SDS011;11407;56.964;-2.212;2023-07-08T10:28:32;12.03;;;4.90;;
22480;SDS011;11407;56.964;-2.212;2023-07-08T10:46:55;15.17;;;4.80;;
22480;SDS011;11407;56.964;-2.212;2023-07-08T10:54:34;11.80;;;5.10;;
22480;SDS011;11407;56.964;-2.212;2023-07-08T10:59:52;15.27;;;4.80;;
22480;SDS011;11407;56.964;-2.212;2023-07-08T11:07:38;15.87;;;4.57;;
22480;SDS011;11407;56.964;-2.212;2023-07-08T11:10:28;11.57;;;4.53;;
22480;SDS011;11407;56.964;-2.212;2023-07-08T11:12:55;13.83;;;4.80;;
22480;SDS011;11407;56.964;-2.212;2023-07-08T11:18:07;14.23;;;5.30;;
22480;SDS011;11407;56.964;-2.212;2023-07-08T11:23:04;16.33;;;4.70;;
22480;SDS011;11407;56.964;-2.212;2023-07-08T11:25:33;15.03;;;4.60;;
22480;SDS011;11407;56.964;-2.212;2023-07-08T11:27:59;13.73;;;4.70;;
22480;SDS011;11407;56.964;-2.212;2023-07-08T11:30:28;15.53;;;4.90;;
22480;SDS011;11407;56.964;-2.212;2023-07-08T11:33:12;21.80;;;5.90;;
22480;SDS011;11407;56.964;-2.212;2023-07-08T11:36:12;11.83;;;4.33;;
22480;SDS011;11407;56.964;-2.212;2023-07-08T11:38:32;11.00;;;4.90;;
22480;SDS011;11407;56.964;-2.212;2023-07-08T11:41:02;11.80;;;5.03;;
22480;SDS011;11407;56.964;-2.212;2023-07-08T11:43:33;25.43;;;5.63;;
22480;SDS011;11407;56.964;-2.212;2023-07-08T11:46:02;18.80;;;5.30;;
22480;SDS011;11407;56.964;-2.212;2023-07-08T11:48:30;14.00;;;4.33;;
22480;SDS011;11407;56.964;-2.212;2023-07-08T11:50:56;14.47;;;4.63;;
22480;SDS011;11407;56.964;-2.212;2023-07-08T12:03:38;13.20;;;5.13;;
22480;SDS011;11407;56.964;-2.212;2023-07-08T12:08:47;14.17;;;5.20;;
22480;SDS011;11407;56.964;-2.212;2023-07-08T12:11:13;12.13;;;4.93;;
22480;SDS011;11407;56.964;-2.212;2023-07-08T12:13:39;12.77;;;5.17;;
22480;SDS011;11407;56.964;-2.212;2023-07-08T12:16:08;14.40;;;4.50;;
22480;SDS011;11407;56.964;-2.212;2023-07-08T12:18:35;11.17;;;4.63;;
22480;SDS011;11407;56.964;-2.212;2023-07-08T12:21:01;11.77;;;4.67;;
22480;SDS011;11407;56.964;-2.212;2023-07-08T12:23:27;15.00;;;5.00;;
22480;SDS011;11407;56.964;-2.212;2023-07-08T12:25:52;13.60;;;5.13;;
22480;SDS011;11407;56.964;-2.212;2023-07-08T12:28:18;12.53;;;4.50;;
22480;SDS011;11407;56.964;-2.212;2023-07-08T12:30:44;15.57;;;5.43;;
22480;SDS011;11407;56.964;-2.212;2023-07-08T12:36:09;12.83;;;4.60;;
22480;SDS011;11407;56.964;-2.212;2023-07-08T12:38:37;18.17;;;4.70;;
22480;SDS011;11407;56.964;-2.212;2023-07-08T12:41:08;15.73;;;4.67;;
22480;SDS011;11407;56.964;-2.212;2023-07-08T12:43:34;11.27;;;4.27;;
22480;SDS011;11407;56.964;-2.212;2023-07-08T12:45:59;13.30;;;4.10;;
22480;SDS011;11407;56.964;-2.212;2023-07-08T12:48:24;8.13;;;4.07;;
22480;SDS011;11407;56.964;-2.212;2023-07-08T12:50:50;15.67;;;5.00;;
22480;SDS011;11407;56.964;-2.212;2023-07-08T12:53:15;13.27;;;4.17;;
22480;SDS011;11407;56.964;-2.212;2023-07-08T12:55:42;13.47;;;4.80;;
22480;SDS011;11407;56.964;-2.212;2023-07-08T12:58:20;12.33;;;4.30;;
22480;SDS011;11407;56.964;-2.212;2023-07-08T13:00:47;17.67;;;4.87;;
22480;SDS011;11407;56.964;-2.212;2023-07-08T13:03:17;12.87;;;4.87;;
22480;SDS011;11407;56.964;-2.212;2023-07-08T13:05:43;12.57;;;4.20;;
22480;SDS011;11407;56.964;-2.212;2023-07-08T13:08:12;16.23;;;4.90;;
22480;SDS011;11407;56.964;-2.212;2023-07-08T13:10:38;13.87;;;4.73;;
22480;SDS011;11407;56.964;-2.212;2023-07-08T13:13:04;15.00;;;4.97;;
22480;SDS011;11407;56.964;-2.212;2023-07-08T13:15:37;11.90;;;4.70;;
22480;SDS011;11407;56.964;-2.212;2023-07-08T13:18:05;10.40;;;4.03;;
22480;SDS011;11407;56.964;-2.212;2023-07-08T13:20:30;11.00;;;4.37;;
22480;SDS011;11407;56.964;-2.212;2023-07-08T13:22:57;11.33;;;3.93;;
22480;SDS011;11407;56.964;-2.212;2023-07-08T13:25:31;16.03;;;4.90;;
22480;SDS011;11407;56.964;-2.212;2023-07-08T13:27:57;11.00;;;4.83;;
22480;SDS011;11407;56.964;-2.212;2023-07-08T13:30:24;11.83;;;4.37;;
22480;SDS011;11407;56.964;-2.212;2023-07-08T13:32:54;12.87;;;4.57;;
22480;SDS011;11407;56.964;-2.212;2023-07-08T13:35:23;11.10;;;4.50;;
22480;SDS011;11407;56.964;-2.212;2023-07-08T13:37:49;14.67;;;4.47;;
22480;SDS011;11407;56.964;-2.212;2023-07-08T13:40:15;14.13;;;4.70;;
22480;SDS011;11407;56.964;-2.212;2023-07-08T13:42:46;12.83;;;4.60;;
22480;SDS011;11407;56.964;-2.212;2023-07-08T13:45:31;12.00;;;4.57;;
22480;SDS011;11407;56.964;-2.212;2023-07-08T13:48:01;12.17;;;4.57;;
22480;SDS011;11407;56.964;-2.212;2023-07-08T13:50:27;11.87;;;4.93;;
22480;SDS011;11407;56.964;-2.212;2023-07-08T13:52:54;17.07;;;4.97;;
22480;SDS011;11407;56.964;-2.212;2023-07-08T13:55:21;17.80;;;5.20;;
22480;SDS011;11407;56.964;-2.212;2023-07-08T13:57:54;11.00;;;4.93;;
22480;SDS011;11407;56.964;-2.212;2023-07-08T14:00:20;12.33;;;4.50;;
22480;SDS011;11407;56.964;-2.212;2023-07-08T14:02:45;16.70;;;5.27;;
22480;SDS011;11407;56.964;-2.212;2023-07-08T14:05:11;15.10;;;5.03;;
22480;SDS011;11407;56.964;-2.212;2023-07-08T14:07:37;13.63;;;4.23;;
22480;SDS011;11407;56.964;-2.212;2023-07-08T14:10:04;14.13;;;4.90;;
22480;SDS011;11407;56.964;-2.212;2023-07-08T14:12:32;18.17;;;5.20;;
22480;SDS011;11407;56.964;-2.212;2023-07-08T14:14:58;14.00;;;4.60;;
22480;SDS011;11407;56.964;-2.212;2023-07-08T14:17:24;12.50;;;4.80;;
22480;SDS011;11407;56.964;-2.212;2023-07-08T14:19:50;18.67;;;5.17;;
22480;SDS011;11407;56.964;-2.212;2023-07-08T14:22:22;14.00;;;4.77;;
22480;SDS011;11407;56.964;-2.212;2023-07-08T14:24:48;12.40;;;4.57;;
22480;SDS011;11407;56.964;-2.212;2023-07-08T14:27:13;14.00;;;4.40;;
22480;SDS011;11407;56.964;-2.212;2023-07-08T14:29:42;15.27;;;4.67;;
22480;SDS011;11407;56.964;-2.212;2023-07-08T14:32:15;16.20;;;5.23;;
22480;SDS011;11407;56.964;-2.212;2023-07-08T14:34:41;17.73;;;5.23;;
22480;SDS011;11407;56.964;-2.212;2023-07-08T14:37:16;13.33;;;4.70;;
22480;SDS011;11407;56.964;-2.212;2023-07-08T14:39:42;16.17;;;5.00;;
22480;SDS011;11407;56.964;-2.212;2023-07-08T14:42:11;17.50;;;5.40;;
22480;SDS011;11407;56.964;-2.212;2023-07-08T14:44:37;10.83;;;4.70;;
22480;SDS011;11407;56.964;-2.212;2023-07-08T14:47:13;15.20;;;5.27;;
22480;SDS011;11407;56.964;-2.212;2023-07-08T14:49:39;13.20;;;4.97;;
22480;SDS011;11407;56.964;-2.212;2023-07-08T14:52:04;16.23;;;4.50;;
22480;SDS011;11407;56.964;-2.212;2023-07-08T14:54:29;13.17;;;4.70;;
22480;SDS011;11407;56.964;-2.212;2023-07-08T14:56:55;15.20;;;5.60;;
22480;SDS011;11407;56.964;-2.212;2023-07-08T14:59:23;14.97;;;5.87;;
22480;SDS011;11407;56.964;-2.212;2023-07-08T15:01:49;15.80;;;5.07;;
22480;SDS011;11407;56.964;-2.212;2023-07-08T15:04:15;16.30;;;5.23;;
22480;SDS011;11407;56.964;-2.212;2023-07-08T15:06:41;17.93;;;5.20;;
22480;SDS011;11407;56.964;-2.212;2023-07-08T15:09:07;17.27;;;5.63;;
22480;SDS011;11407;56.964;-2.212;2023-07-08T15:11:32;14.57;;;5.43;;
22480;SDS011;11407;56.964;-2.212;2023-07-08T15:13:58;15.70;;;5.40;;
22480;SDS011;11407;56.964;-2.212;2023-07-08T15:16:24;20.50;;;5.93;;
22480;SDS011;11407;56.964;-2.212;2023-07-08T15:18:49;14.63;;;5.43;;
22480;SDS011;11407;56.964;-2.212;2023-07-08T15:21:15;20.90;;;5.60;;
22480;SDS011;11407;56.964;-2.212;2023-07-08T15:23:40;11.97;;;5.00;;
22480;SDS011;11407;56.964;-2.212;2023-07-08T15:26:09;16.30;;;5.47;;
22480;SDS011;11407;56.964;-2.212;2023-07-08T15:28:41;14.03;;;5.57;;
22480;SDS011;11407;56.964;-2.212;2023-07-08T15:31:12;14.67;;;5.40;;
22480;SDS011;11407;56.964;-2.212;2023-07-08T15:33:38;15.77;;;5.03;;
22480;SDS011;11407;56.964;-2.212;2023-07-08T15:36:03;19.27;;;5.80;;